createdAt,value
2022-09-06T00:00:21.862Z,100.00
2022-09-06T00:02:52.239Z,100.00
2022-09-06T00:05:22.834Z,100.00
2022-09-06T00:07:53.122Z,100.00
2022-09-06T00:10:23.592Z,100.00
2022-09-06T00:12:54.090Z,100.00
2022-09-06T00:15:27.540Z,100.00
2022-09-06T00:17:57.803Z,100.00
2022-09-06T00:20:28.099Z,100.00
2022-09-06T00:23:02.015Z,100.00
2022-09-06T00:25:33.448Z,100.00
2022-09-06T00:28:06.241Z,100.00
2022-09-06T00:30:40.728Z,100.00
2022-09-06T00:33:11.504Z,100.00
2022-09-06T00:35:41.852Z,100.00
2022-09-06T00:38:12.390Z,100.00
2022-09-06T00:40:42.839Z,100.00
2022-09-06T00:43:13.121Z,100.00
2022-09-06T00:45:46.969Z,100.00
2022-09-06T00:48:18.718Z,100.00
2022-09-06T00:50:51.277Z,100.00
2022-09-06T00:53:23.030Z,100.00
2022-09-06T00:55:53.311Z,100.00
2022-09-06T00:58:24.056Z,100.00
2022-09-06T01:00:57.696Z,100.00
2022-09-06T01:03:29.550Z,100.00
2022-09-06T01:06:09.706Z,100.00
2022-09-06T01:08:53.065Z,100.00
2022-09-06T01:11:44.687Z,100.00
2022-09-06T01:14:25.539Z,100.00
2022-09-06T01:17:06.329Z,100.00
2022-09-06T01:20:09.787Z,100.00
2022-09-06T01:23:00.635Z,100.00
2022-09-06T01:25:39.813Z,100.00
2022-09-06T01:28:33.478Z,100.00
2022-09-06T01:31:21.642Z,100.00
2022-09-06T01:33:59.739Z,100.00
2022-09-06T01:36:33.844Z,100.00
2022-09-06T01:39:04.917Z,100.00
2022-09-06T01:41:36.406Z,100.00
2022-09-06T01:44:09.580Z,100.00
2022-09-06T01:46:47.702Z,100.00
2022-09-06T01:49:33.406Z,100.00
2022-09-06T01:52:16.158Z,100.00
2022-09-06T01:55:08.143Z,100.00
2022-09-06T01:58:06.199Z,100.00
2022-09-06T02:00:46.606Z,100.00
2022-09-06T02:03:28.620Z,100.00
2022-09-06T02:06:03.262Z,100.00
2022-09-06T02:08:39.050Z,100.00
2022-09-06T02:11:11.761Z,100.00
2022-09-06T02:13:46.532Z,100.00
2022-09-06T02:16:23.211Z,100.00
2022-09-06T02:18:57.523Z,100.00
2022-09-06T02:21:33.260Z,100.00
2022-09-06T02:24:10.992Z,100.00
2022-09-06T02:26:46.544Z,100.00
2022-09-06T02:29:17.141Z,100.00
2022-09-06T02:31:55.136Z,100.00
2022-09-06T02:34:25.707Z,100.00
2022-09-06T02:36:57.638Z,100.00
2022-09-06T02:39:28.200Z,100.00
2022-09-06T02:41:58.847Z,100.00
2022-09-06T02:44:29.215Z,100.00
2022-09-06T02:47:03.833Z,100.00
2022-09-06T02:49:34.795Z,100.00
2022-09-06T02:52:05.444Z,100.00
2022-09-06T02:54:35.757Z,100.00
2022-09-06T02:57:06.284Z,100.00
2022-09-06T02:59:36.631Z,100.00
2022-09-06T03:02:11.018Z,100.00
2022-09-06T03:04:43.263Z,100.00
2022-09-06T03:07:14.385Z,100.00
2022-09-06T03:09:44.648Z,100.00
2022-09-06T03:12:15.464Z,100.00
2022-09-06T03:14:45.615Z,100.00
2022-09-06T03:17:18.979Z,100.00
2022-09-06T03:19:49.968Z,100.00
2022-09-06T03:22:28.513Z,100.00
2022-09-06T03:25:00.939Z,100.00
2022-09-06T03:27:31.849Z,100.00
2022-09-06T03:30:05.587Z,100.00
2022-09-06T03:32:38.407Z,100.00
2022-09-06T03:35:12.793Z,100.00
2022-09-06T03:37:42.977Z,100.00
2022-09-06T03:40:14.717Z,100.00
2022-09-06T03:42:46.687Z,100.00
2022-09-06T03:45:17.297Z,100.00
2022-09-06T03:48:06.340Z,100.00
2022-09-06T03:50:36.520Z,100.00
2022-09-06T03:53:08.065Z,100.00
2022-09-06T03:55:38.359Z,100.00
2022-09-06T03:58:11.071Z,100.00
2022-09-06T04:00:41.657Z,100.00
2022-09-06T04:03:15.461Z,100.00
2022-09-06T04:05:48.668Z,100.00
2022-09-06T04:08:18.779Z,100.00
2022-09-06T04:10:52.222Z,100.00
2022-09-06T04:13:23.276Z,100.00
2022-09-06T04:15:53.776Z,100.00
2022-09-06T04:18:27.705Z,100.00
2022-09-06T04:20:58.994Z,100.00
2022-09-06T04:23:31.116Z,100.00
2022-09-06T04:26:02.399Z,100.00
2022-09-06T04:28:33.142Z,100.00
2022-09-06T04:31:05.324Z,100.00
2022-09-06T04:33:39.581Z,100.00
2022-09-06T04:36:12.043Z,100.00
2022-09-06T04:38:43.643Z,100.00
2022-09-06T04:41:15.877Z,100.00
2022-09-06T04:43:46.158Z,100.00
2022-09-06T04:46:25.034Z,100.00
2022-09-06T04:49:01.587Z,100.00
2022-09-06T04:51:32.794Z,100.00
2022-09-06T04:54:03.287Z,100.00
2022-09-06T04:56:33.503Z,100.00
2022-09-06T04:59:04.293Z,100.00
2022-09-06T05:01:34.499Z,100.00
2022-09-06T05:04:07.951Z,100.00
2022-09-06T05:06:40.183Z,100.00
2022-09-06T05:09:12.054Z,100.00
2022-09-06T05:11:42.184Z,100.00
2022-09-06T05:14:13.465Z,100.00
2022-09-06T05:16:45.533Z,100.00
2022-09-06T05:19:19.420Z,100.00
2022-09-06T05:21:52.585Z,100.00
2022-09-06T05:24:23.398Z,100.00
2022-09-06T05:26:53.779Z,100.00
2022-09-06T05:29:26.519Z,100.00
2022-09-06T05:32:00.282Z,100.00
2022-09-06T05:34:33.539Z,100.00
2022-09-06T05:37:03.761Z,100.00
2022-09-06T05:39:33.996Z,100.00
2022-09-06T05:42:06.776Z,100.00
2022-09-06T05:44:37.582Z,100.00
2022-09-06T05:47:07.984Z,100.00
2022-09-06T05:49:40.791Z,100.00
2022-09-06T05:52:11.576Z,100.00
2022-09-06T05:54:41.760Z,100.00
2022-09-06T05:57:11.937Z,100.00
2022-09-06T05:59:42.265Z,100.00
2022-09-06T06:02:12.528Z,100.00
2022-09-06T06:04:45.604Z,100.00
2022-09-06T06:07:15.971Z,100.00
2022-09-06T06:09:46.262Z,100.00
2022-09-06T06:12:16.430Z,100.00
2022-09-06T06:14:46.644Z,100.00
2022-09-06T06:17:16.806Z,100.00
2022-09-06T06:19:49.597Z,100.00
2022-09-06T06:22:19.959Z,100.00
2022-09-06T06:24:50.399Z,100.00
2022-09-06T06:27:20.649Z,100.00
2022-09-06T06:29:51.035Z,100.00
2022-09-06T06:32:21.453Z,100.00
2022-09-06T06:34:54.519Z,100.00
2022-09-06T06:37:24.736Z,100.00
2022-09-06T06:39:54.997Z,100.00
2022-09-06T06:42:25.326Z,100.00
2022-09-06T06:44:57.300Z,100.00
2022-09-06T06:47:27.441Z,100.00
2022-09-06T06:50:00.277Z,100.00
2022-09-06T06:52:30.808Z,100.00
2022-09-06T06:55:01.212Z,100.00
2022-09-06T06:57:31.849Z,100.00
2022-09-06T07:00:03.366Z,100.00
2022-09-06T07:02:33.586Z,100.00
2022-09-06T07:07:57.312Z,97.69
2022-09-06T07:10:35.349Z,96.90
2022-09-06T07:13:05.672Z,96.25
2022-09-06T07:15:35.910Z,97.73
2022-09-06T07:18:07.048Z,94.59
2022-09-06T07:26:22.540Z,91.31
2022-09-06T07:28:55.868Z,91.22
2022-09-06T07:34:17.855Z,88.94
2022-09-06T07:36:51.335Z,85.73
2022-09-06T07:39:21.842Z,87.80
2022-09-06T07:41:52.720Z,86.80
2022-09-06T07:44:23.348Z,85.81
2022-09-06T07:46:53.757Z,82.97
2022-09-06T07:49:24.134Z,81.93
2022-09-06T07:51:57.563Z,81.75
2022-09-06T07:54:30.835Z,80.74
2022-09-06T07:57:01.706Z,77.85
2022-09-06T07:59:32.224Z,79.32
2022-09-06T08:02:02.619Z,80.11
2022-09-06T08:04:34.683Z,78.38
2022-09-06T08:09:58.568Z,78.69
2022-09-06T08:12:29.493Z,78.44
2022-09-06T08:15:01.032Z,78.74
2022-09-06T08:17:36.616Z,78.07
2022-09-06T08:20:08.885Z,76.34
2022-09-06T08:22:42.960Z,75.22
2022-09-06T08:25:13.512Z,76.85
2022-09-06T08:27:44.043Z,76.51
2022-09-06T08:30:15.150Z,76.19
2022-09-06T08:32:45.412Z,76.52
2022-09-06T08:35:16.650Z,76.33
2022-09-06T08:37:51.488Z,77.07
2022-09-06T08:40:25.301Z,73.80
2022-09-06T08:42:55.412Z,73.39
2022-09-06T08:45:26.460Z,72.30
2022-09-06T08:47:58.203Z,73.61
2022-09-06T08:50:31.840Z,72.23
2022-09-06T08:53:17.522Z,72.38
2022-09-06T08:55:54.419Z,71.77
2022-09-06T08:58:47.106Z,70.27
2022-09-06T09:01:23.436Z,71.01
2022-09-06T09:03:56.255Z,70.35
2022-09-06T09:06:28.478Z,67.56
2022-09-06T09:09:07.935Z,68.86
2022-09-06T09:11:39.225Z,66.35
2022-09-06T09:14:19.509Z,69.00
2022-09-06T09:16:53.884Z,67.75
2022-09-06T09:19:24.397Z,69.01
2022-09-06T09:21:55.011Z,66.75
2022-09-06T09:24:28.056Z,70.27
2022-09-06T09:27:00.779Z,67.21
2022-09-06T09:29:36.119Z,69.93
2022-09-06T09:32:08.732Z,67.04
2022-09-06T09:34:41.264Z,68.22
2022-09-06T09:40:16.690Z,64.79
2022-09-06T09:42:48.271Z,66.67
2022-09-06T09:45:30.847Z,65.11
2022-09-06T09:48:22.418Z,61.86
2022-09-06T09:50:52.791Z,63.28
2022-09-06T09:53:26.757Z,62.43
2022-09-06T09:56:03.396Z,63.04
2022-09-06T09:58:39.829Z,59.22
2022-09-06T10:01:22.046Z,62.08
2022-09-06T10:09:41.870Z,63.08
2022-09-06T10:12:19.916Z,63.99
2022-09-06T10:14:51.805Z,65.30
2022-09-06T10:17:24.974Z,62.69
2022-09-06T10:19:57.047Z,65.66
2022-09-06T10:22:33.039Z,65.60
2022-09-06T10:25:26.280Z,69.37
2022-09-06T10:28:29.359Z,56.77
2022-09-06T10:31:36.020Z,57.35
2022-09-06T10:34:19.292Z,56.76
2022-09-06T10:36:57.372Z,61.41
2022-09-06T10:39:45.578Z,62.30
2022-09-06T10:42:27.655Z,58.13
2022-09-06T10:45:13.070Z,60.04
2022-09-06T10:47:59.261Z,61.36
2022-09-06T10:50:37.913Z,62.96
2022-09-06T10:53:13.946Z,60.16
2022-09-06T10:55:48.257Z,61.98
2022-09-06T10:58:27.673Z,61.53
2022-09-06T11:00:59.238Z,61.34
2022-09-06T11:03:53.710Z,59.61
2022-09-06T11:06:32.726Z,60.07
2022-09-06T11:09:10.987Z,61.60
2022-09-06T11:11:48.487Z,61.75
2022-09-06T11:14:19.166Z,60.82
2022-09-06T11:16:54.325Z,60.58
2022-09-06T11:19:32.606Z,62.62
2022-09-06T11:22:35.968Z,62.99
2022-09-06T11:25:37.899Z,61.21
2022-09-06T11:28:13.638Z,63.01
2022-09-06T11:30:48.952Z,62.75
2022-09-06T11:33:28.092Z,61.54
2022-09-06T11:36:21.197Z,63.40
2022-09-06T11:38:58.663Z,61.16
2022-09-06T11:41:33.998Z,63.82
2022-09-06T11:44:05.157Z,63.73
2022-09-06T11:47:07.853Z,62.94
2022-09-06T11:49:42.156Z,62.59
2022-09-06T11:53:00.637Z,61.98
2022-09-06T11:55:43.228Z,58.72
2022-09-06T11:58:27.044Z,57.44
2022-09-06T12:01:27.444Z,58.53
2022-09-06T12:04:07.156Z,58.86
2022-09-06T12:06:40.902Z,62.52
2022-09-06T12:09:37.425Z,62.70
2022-09-06T12:12:16.344Z,62.30
2022-09-06T12:14:49.530Z,60.85
2022-09-06T12:17:24.017Z,60.24
2022-09-06T12:19:58.079Z,61.54
2022-09-06T12:23:07.046Z,61.04
2022-09-06T12:25:56.439Z,60.38
2022-09-06T12:28:48.160Z,62.80
2022-09-06T12:31:43.234Z,59.85
2022-09-06T12:34:17.038Z,58.17
2022-09-06T12:36:57.356Z,58.87
2022-09-06T12:39:28.271Z,58.03
2022-09-06T12:42:01.006Z,59.96
2022-09-06T12:44:39.036Z,59.47
2022-09-06T12:47:15.556Z,60.20
2022-09-06T12:49:46.143Z,60.22
2022-09-06T12:52:22.181Z,58.05
2022-09-06T12:54:54.539Z,56.57
2022-09-06T12:57:28.364Z,58.10
2022-09-06T13:00:04.105Z,55.06
2022-09-06T13:02:44.297Z,51.55
2022-09-06T13:05:16.832Z,50.22
2022-09-06T13:07:50.429Z,49.63
2022-09-06T13:10:25.894Z,48.50
2022-09-06T13:12:58.917Z,48.68
2022-09-06T13:15:33.186Z,44.11
2022-09-06T13:18:27.474Z,47.21
2022-09-06T13:21:03.551Z,45.02
2022-09-06T13:23:43.920Z,43.57
2022-09-06T13:26:14.695Z,45.16
2022-09-06T13:28:45.266Z,44.75
2022-09-06T13:31:26.486Z,45.92
2022-09-06T13:34:00.326Z,45.80
2022-09-06T13:36:33.226Z,44.36
2022-09-06T13:39:04.508Z,43.35
2022-09-06T13:41:42.583Z,43.54
2022-09-06T13:44:30.385Z,43.17
2022-09-06T13:47:05.135Z,42.47
2022-09-06T13:49:36.427Z,42.77
2022-09-06T13:52:08.519Z,44.42
2022-09-06T13:54:40.418Z,43.21
2022-09-06T13:57:10.887Z,41.86
2022-09-06T13:59:43.031Z,44.06
2022-09-06T14:02:21.248Z,42.02
2022-09-06T14:04:51.830Z,43.79
2022-09-06T14:07:22.430Z,41.11
2022-09-06T14:09:53.120Z,42.25
2022-09-06T14:12:23.852Z,42.07
2022-09-06T14:14:54.349Z,43.10
2022-09-06T14:17:28.573Z,43.71
2022-09-06T14:20:00.447Z,43.25
2022-09-06T14:22:31.565Z,43.26
2022-09-06T14:25:04.549Z,43.25
2022-09-06T14:27:37.128Z,43.82
2022-09-06T14:30:10.694Z,44.48
2022-09-06T14:32:43.957Z,42.27
2022-09-06T14:35:17.466Z,42.47
2022-09-06T14:37:53.612Z,44.08
2022-09-06T14:40:25.163Z,42.47
2022-09-06T14:42:57.263Z,42.08
2022-09-06T14:45:31.046Z,44.56
2022-09-06T14:48:12.357Z,44.74
2022-09-06T14:50:42.942Z,43.11
2022-09-06T14:53:38.887Z,43.60
2022-09-06T14:56:08.973Z,42.54
2022-09-06T14:58:41.364Z,43.83
2022-09-06T15:01:14.845Z,44.39
2022-09-06T15:03:54.182Z,42.53
2022-09-06T15:06:33.338Z,42.79
2022-09-06T15:09:07.358Z,44.07
2022-09-06T15:11:40.167Z,45.40
2022-09-06T15:14:16.189Z,46.33
2022-09-06T15:16:48.973Z,45.97
2022-09-06T15:19:25.633Z,46.08
2022-09-06T15:22:06.386Z,47.29
2022-09-06T15:24:43.869Z,49.09
2022-09-06T15:27:14.127Z,49.05
2022-09-06T15:29:50.131Z,46.93
2022-09-06T15:32:33.096Z,49.24
2022-09-06T15:35:34.314Z,46.97
2022-09-06T15:38:11.133Z,50.57
2022-09-06T15:40:47.919Z,51.59
2022-09-06T15:43:26.019Z,50.37
2022-09-06T15:46:00.965Z,48.62
2022-09-06T15:48:41.467Z,50.07
2022-09-06T15:51:22.192Z,52.38
2022-09-06T15:54:00.030Z,51.61
2022-09-06T15:56:31.008Z,54.24
2022-09-06T15:59:01.574Z,54.09
2022-09-06T16:01:34.199Z,52.67
2022-09-06T16:04:07.216Z,54.95
2022-09-06T16:06:42.758Z,54.01
2022-09-06T16:09:15.231Z,53.83
2022-09-06T16:11:50.428Z,54.32
2022-09-06T16:14:22.383Z,53.88
2022-09-06T16:16:55.209Z,54.01
2022-09-06T16:19:26.143Z,54.56
2022-09-06T16:21:59.378Z,55.10
2022-09-06T16:24:30.105Z,55.14
2022-09-06T16:27:00.740Z,55.17
2022-09-06T16:29:32.024Z,55.36
2022-09-06T16:32:02.476Z,56.55
2022-09-06T16:34:32.910Z,57.54
2022-09-06T16:37:08.101Z,57.20
2022-09-06T16:39:38.654Z,58.50
2022-09-06T16:42:10.388Z,58.80
2022-09-06T16:44:41.559Z,58.16
2022-09-06T16:47:15.995Z,59.27
2022-09-06T16:49:47.440Z,57.98
2022-09-06T16:52:20.485Z,58.81
2022-09-06T16:54:50.674Z,60.09
2022-09-06T16:57:21.811Z,61.67
2022-09-06T16:59:52.645Z,60.93
2022-09-06T17:02:23.195Z,61.75
2022-09-06T17:04:54.174Z,57.93
2022-09-06T17:07:27.628Z,58.91
2022-09-06T17:09:58.243Z,59.47
2022-09-06T17:12:29.521Z,60.41
2022-09-06T17:14:59.854Z,63.16
2022-09-06T17:17:27.954Z,65.48
2022-09-06T17:19:58.479Z,65.92
2022-09-06T17:22:31.517Z,66.57
2022-09-06T17:25:02.127Z,68.21
2022-09-06T17:27:32.995Z,69.73
2022-09-06T17:30:04.277Z,68.79
2022-09-06T17:32:38.032Z,70.24
2022-09-06T17:35:12.026Z,73.09
2022-09-06T17:37:45.863Z,74.35
2022-09-06T17:40:16.477Z,76.97
2022-09-06T17:42:47.716Z,77.93
2022-09-06T17:45:18.855Z,80.08
2022-09-06T17:47:50.278Z,81.58
2022-09-06T17:50:20.614Z,88.33
2022-09-06T17:52:55.957Z,96.77
2022-09-06T17:55:27.131Z,100.00
2022-09-06T17:57:57.353Z,100.00
2022-09-06T18:00:29.082Z,100.00
2022-09-06T18:02:59.758Z,100.00
2022-09-06T18:05:30.170Z,100.00
2022-09-06T18:08:03.586Z,100.00
2022-09-06T18:10:36.680Z,100.00
2022-09-06T18:13:07.537Z,100.00
2022-09-06T18:15:42.734Z,100.00
2022-09-06T18:18:13.072Z,100.00
2022-09-06T18:20:43.459Z,100.00
2022-09-06T18:23:26.190Z,100.00
2022-09-06T18:26:01.314Z,100.00
2022-09-06T18:28:32.788Z,100.00
2022-09-06T18:31:06.393Z,100.00
2022-09-06T18:33:38.114Z,100.00
2022-09-06T18:36:10.371Z,100.00
2022-09-06T18:38:44.348Z,100.00
2022-09-06T18:41:31.199Z,100.00
2022-09-06T18:44:03.262Z,100.00
2022-09-06T18:46:34.513Z,100.00
2022-09-06T18:49:06.397Z,100.00
2022-09-06T18:51:44.298Z,100.00
2022-09-06T18:54:17.721Z,100.00
2022-09-06T18:56:48.750Z,100.00
2022-09-06T18:59:19.914Z,100.00
2022-09-06T19:01:50.651Z,100.00
2022-09-06T19:04:21.238Z,100.00
2022-09-06T19:06:52.460Z,100.00
2022-09-06T19:09:25.341Z,100.00
2022-09-06T19:11:56.129Z,100.00
2022-09-06T19:14:26.572Z,100.00
2022-09-06T19:16:57.053Z,100.00
2022-09-06T19:19:29.781Z,100.00
2022-09-06T19:22:00.239Z,100.00
2022-09-06T19:24:33.956Z,100.00
2022-09-06T19:27:04.649Z,100.00
2022-09-06T19:29:35.285Z,100.00
2022-09-06T19:32:06.654Z,100.00
2022-09-06T19:34:37.529Z,100.00
2022-09-06T19:37:08.303Z,100.00
2022-09-06T19:39:41.642Z,100.00
2022-09-06T19:42:12.051Z,100.00
2022-09-06T19:44:42.374Z,100.00
2022-09-06T19:47:12.837Z,100.00
2022-09-06T19:49:43.232Z,100.00
2022-09-06T19:52:13.799Z,100.00
2022-09-06T19:54:47.045Z,100.00
2022-09-06T19:57:17.288Z,100.00
2022-09-06T19:59:50.485Z,100.00
2022-09-06T20:02:21.289Z,100.00
2022-09-06T20:04:51.795Z,100.00
2022-09-06T20:07:22.055Z,100.00
2022-09-06T20:09:54.943Z,100.00
2022-09-06T20:12:25.409Z,100.00
2022-09-06T20:14:57.835Z,100.00
2022-09-06T20:17:35.523Z,100.00
2022-09-06T20:20:06.600Z,100.00
2022-09-06T20:22:36.857Z,100.00
2022-09-06T20:25:12.101Z,100.00
2022-09-06T20:27:44.646Z,100.00
2022-09-06T20:30:16.619Z,100.00
2022-09-06T20:32:46.971Z,100.00
2022-09-06T20:35:17.553Z,100.00
2022-09-06T20:37:47.922Z,100.00
2022-09-06T20:40:21.470Z,100.00
2022-09-06T20:42:51.870Z,100.00
2022-09-06T20:45:26.148Z,100.00
2022-09-06T20:47:57.817Z,100.00
2022-09-06T20:50:29.290Z,100.00
2022-09-06T20:53:00.013Z,100.00
2022-09-06T20:55:33.271Z,100.00
2022-09-06T20:58:03.926Z,100.00
2022-09-06T21:00:34.487Z,100.00
2022-09-06T21:03:05.207Z,100.00
2022-09-06T21:05:35.552Z,100.00
2022-09-06T21:08:06.072Z,100.00
2022-09-06T21:10:39.615Z,100.00
2022-09-06T21:13:09.995Z,100.00
2022-09-06T21:15:42.418Z,100.00
2022-09-06T21:18:13.235Z,100.00
2022-09-06T21:20:43.774Z,100.00
2022-09-06T21:23:14.717Z,100.00
2022-09-06T21:25:55.738Z,100.00
2022-09-06T21:28:26.849Z,100.00
2022-09-06T21:31:05.181Z,100.00
2022-09-06T21:33:36.159Z,100.00
2022-09-06T21:36:09.213Z,100.00
2022-09-06T21:38:42.240Z,100.00
2022-09-06T21:41:16.745Z,100.00
2022-09-06T21:43:47.466Z,100.00
2022-09-06T21:46:19.776Z,100.00
2022-09-06T21:48:52.091Z,100.00
2022-09-06T21:51:24.359Z,100.00
2022-09-06T21:53:56.110Z,100.00
2022-09-06T21:56:30.019Z,100.00
2022-09-06T21:59:01.804Z,100.00
2022-09-06T22:01:34.769Z,100.00
2022-09-06T22:04:06.328Z,100.00
2022-09-06T22:06:38.310Z,100.00
2022-09-06T22:09:15.320Z,100.00
2022-09-06T22:11:48.746Z,100.00
2022-09-06T22:14:18.867Z,100.00
2022-09-06T22:16:49.061Z,100.00
2022-09-06T22:19:19.424Z,100.00
2022-09-06T22:21:50.158Z,100.00
2022-09-06T22:24:20.835Z,100.00
2022-09-06T22:26:54.420Z,100.00
2022-09-06T22:29:24.621Z,100.00
2022-09-06T22:31:55.239Z,100.00
2022-09-06T22:34:25.882Z,100.00
2022-09-06T22:36:56.361Z,100.00
2022-09-06T22:39:26.986Z,100.00
2022-09-06T22:42:01.004Z,100.00
2022-09-06T22:44:31.819Z,100.00
2022-09-06T22:47:02.762Z,100.00
2022-09-06T22:49:33.277Z,100.00
2022-09-06T22:52:03.930Z,100.00
2022-09-06T22:54:34.494Z,100.00
2022-09-06T22:57:08.439Z,100.00
2022-09-06T22:59:39.546Z,100.00
2022-09-06T23:02:10.078Z,100.00
2022-09-06T23:04:40.660Z,100.00
2022-09-06T23:07:11.745Z,100.00
2022-09-06T23:09:42.517Z,100.00
2022-09-06T23:12:16.016Z,100.00
2022-09-06T23:14:46.264Z,100.00
2022-09-06T23:17:17.139Z,100.00
2022-09-06T23:19:47.632Z,100.00
2022-09-06T23:22:18.432Z,100.00
2022-09-06T23:24:49.185Z,100.00
2022-09-06T23:27:22.920Z,100.00
2022-09-06T23:29:53.911Z,100.00
2022-09-06T23:32:26.292Z,100.00
2022-09-06T23:34:56.835Z,100.00
2022-09-06T23:37:27.701Z,100.00
2022-09-06T23:39:57.953Z,100.00
2022-09-06T23:42:31.422Z,100.00
2022-09-06T23:45:01.885Z,100.00
2022-09-06T23:47:32.465Z,100.00
2022-09-06T23:50:03.487Z,100.00
2022-09-06T23:52:33.749Z,100.00
2022-09-06T23:55:04.175Z,100.00
2022-09-06T23:57:37.664Z,100.00
